createdAt,value
2022-11-27T00:02:08.577Z,100435.94
2022-11-27T00:06:12.371Z,100435.09
2022-11-27T00:10:13.646Z,100431.72
2022-11-27T00:14:16.864Z,100439.53
2022-11-27T00:18:18.091Z,100455.00
2022-11-27T00:22:19.386Z,100445.72
2022-11-27T00:26:21.205Z,100442.25
2022-11-27T00:30:22.513Z,100435.44
2022-11-27T00:34:23.832Z,100444.91
2022-11-27T00:38:25.137Z,100432.97
2022-11-27T00:42:26.475Z,100439.13
2022-11-27T00:46:29.637Z,100439.16
2022-11-27T00:50:32.144Z,100450.38
2022-11-27T00:54:33.795Z,100435.84
2022-11-27T00:58:35.404Z,100442.78
2022-11-27T01:02:36.748Z,100441.97
2022-11-27T01:06:38.411Z,100430.91
2022-11-27T01:10:39.734Z,100437.03
2022-11-27T01:14:41.190Z,100425.91
2022-11-27T01:18:43.711Z,100420.91
2022-11-27T01:22:45.049Z,100422.59
2022-11-27T01:26:46.379Z,100413.25
2022-11-27T01:30:47.695Z,100414.16
2022-11-27T01:34:49.096Z,100407.38
2022-11-27T01:38:50.399Z,100404.03
2022-11-27T01:42:51.693Z,100399.75
2022-11-27T01:47:14.679Z,100394.56
2022-11-27T01:51:16.063Z,100394.41
2022-11-27T01:55:27.686Z,100382.41
2022-11-27T01:59:29.212Z,100380.78
2022-11-27T02:03:30.546Z,100363.59
2022-11-27T02:07:31.996Z,100361.06
2022-11-27T02:11:42.926Z,100360.34
2022-11-27T02:15:48.381Z,100352.56
2022-11-27T02:19:55.872Z,100346.59
2022-11-27T02:24:06.645Z,100336.31
2022-11-27T02:28:20.630Z,100333.75
2022-11-27T02:32:57.613Z,100330.38
2022-11-27T02:37:17.310Z,100310.69
2022-11-27T02:41:26.064Z,100315.88
2022-11-27T02:45:32.721Z,100312.56
2022-11-27T02:49:36.075Z,100310.94
2022-11-27T02:53:42.952Z,100306.78
2022-11-27T02:57:45.575Z,100323.97
2022-11-27T03:01:51.373Z,100312.84
2022-11-27T03:05:56.246Z,100312.00
2022-11-27T03:10:01.280Z,100312.06
2022-11-27T03:14:05.486Z,100294.97
2022-11-27T03:18:13.668Z,100294.91
2022-11-27T03:22:16.346Z,100299.16
2022-11-27T03:26:17.736Z,100296.66
2022-11-27T03:30:19.086Z,100296.63
2022-11-27T03:34:20.407Z,100291.47
2022-11-27T03:38:21.763Z,100289.00
2022-11-27T03:42:30.326Z,100288.13
2022-11-27T03:46:39.714Z,100297.63
2022-11-27T03:50:41.096Z,100282.19
2022-11-27T03:54:55.008Z,100280.53
2022-11-27T03:59:00.871Z,100269.28
2022-11-27T04:03:03.223Z,100249.47
2022-11-27T04:07:04.475Z,100252.88
2022-11-27T04:11:05.810Z,100260.59
2022-11-27T04:15:07.731Z,100266.56
2022-11-27T04:19:09.811Z,100276.78
2022-11-27T04:23:11.119Z,100278.47
2022-11-27T04:27:12.492Z,100291.38
2022-11-27T04:31:13.809Z,100274.28
2022-11-27T04:35:15.422Z,100276.00
2022-11-27T04:39:16.768Z,100285.47
2022-11-27T04:43:18.077Z,100288.03
2022-11-27T04:47:19.387Z,100267.41
2022-11-27T04:51:21.110Z,100263.03
2022-11-27T04:55:22.712Z,100259.69
2022-11-27T04:59:24.075Z,100256.19
2022-11-27T05:03:25.431Z,100253.59
2022-11-27T05:07:26.777Z,100254.47
2022-11-27T05:11:28.502Z,100251.81
2022-11-27T05:15:29.810Z,100247.50
2022-11-27T05:19:31.696Z,100237.13
2022-11-27T05:23:33.687Z,100217.34
2022-11-27T05:27:34.984Z,100209.56
2022-11-27T05:31:36.589Z,100208.63
2022-11-27T05:35:38.411Z,100208.59
2022-11-27T05:39:40.196Z,100226.56
2022-11-27T05:43:41.893Z,100226.50
2022-11-27T05:47:43.281Z,100237.63
2022-11-27T05:51:50.721Z,100249.47
2022-11-27T05:55:52.872Z,100229.81
2022-11-27T05:59:54.318Z,100216.97
2022-11-27T06:03:55.669Z,100205.00
2022-11-27T06:07:57.034Z,100183.50
2022-11-27T06:11:58.583Z,100179.19
2022-11-27T06:16:03.642Z,100180.91
2022-11-27T06:20:05.482Z,100169.69
2022-11-27T06:24:07.004Z,100186.00
2022-11-27T06:28:08.641Z,100194.63
2022-11-27T06:32:09.978Z,100186.97
2022-11-27T06:36:11.358Z,100197.19
2022-11-27T06:40:12.884Z,100213.47
2022-11-27T06:44:14.231Z,100225.53
2022-11-27T06:48:15.512Z,100216.13
2022-11-27T06:52:16.771Z,100182.72
2022-11-27T06:56:19.487Z,100183.59
2022-11-27T07:00:20.887Z,100170.66
2022-11-27T07:04:22.359Z,100158.72
2022-11-27T07:08:23.617Z,100166.44
2022-11-27T07:12:24.894Z,100157.97
2022-11-27T07:16:26.616Z,100150.28
2022-11-27T07:20:28.448Z,100131.50
2022-11-27T07:24:29.908Z,100130.69
2022-11-27T07:28:31.182Z,100126.47
2022-11-27T07:32:33.107Z,100128.22
2022-11-27T07:36:34.366Z,100137.72
2022-11-27T07:40:38.063Z,100137.91
2022-11-27T07:44:39.689Z,100141.38
2022-11-27T07:48:41.475Z,100138.84
2022-11-27T07:52:42.767Z,100141.47
2022-11-27T07:56:44.043Z,100137.28
2022-11-27T08:00:45.430Z,100132.16
2022-11-27T08:04:46.851Z,100127.06
2022-11-27T08:08:48.527Z,100123.69
2022-11-27T08:12:49.906Z,100118.63
2022-11-27T08:16:51.160Z,100117.03
2022-11-27T08:20:52.498Z,100112.81
2022-11-27T08:24:53.807Z,100117.16
2022-11-27T08:28:56.122Z,100107.00
2022-11-27T08:32:57.495Z,100092.59
2022-11-27T08:36:59.057Z,100090.06
2022-11-27T08:41:01.359Z,100085.09
2022-11-27T08:45:04.353Z,100080.94
2022-11-27T08:49:05.643Z,100081.72
2022-11-27T08:53:06.984Z,100092.81
2022-11-27T08:57:08.214Z,100103.00
2022-11-27T09:01:19.737Z,100103.16
2022-11-27T09:05:21.066Z,100103.41
2022-11-27T09:09:22.710Z,100094.00
2022-11-27T09:13:23.935Z,100091.63
2022-11-27T09:17:25.296Z,100104.50
2022-11-27T09:21:28.071Z,100108.97
2022-11-27T09:25:29.387Z,100108.13
2022-11-27T09:29:30.639Z,100099.66
2022-11-27T09:33:32.891Z,100079.22
2022-11-27T09:37:34.176Z,100068.22
2022-11-27T09:41:41.585Z,100066.69
2022-11-27T09:45:49.191Z,100048.88
2022-11-27T09:50:23.272Z,100039.69
2022-11-27T09:54:25.790Z,100038.19
2022-11-27T09:58:36.715Z,100042.78
2022-11-27T10:02:38.093Z,100061.00
2022-11-27T10:06:45.675Z,100050.59
2022-11-27T10:11:03.221Z,100037.00
2022-11-27T10:15:11.207Z,100029.47
2022-11-27T10:19:22.314Z,100035.69
2022-11-27T10:23:26.687Z,100031.59
2022-11-27T10:27:32.868Z,100018.84
2022-11-27T10:31:34.262Z,100021.59
2022-11-27T10:35:35.646Z,100027.72
2022-11-27T10:39:42.382Z,100000.25
2022-11-27T10:43:44.774Z,99982.38
2022-11-27T10:47:49.202Z,99978.25
2022-11-27T10:51:50.440Z,99980.19
2022-11-27T10:55:54.472Z,99980.34
2022-11-27T11:00:06.002Z,99973.59
2022-11-27T11:04:31.408Z,99965.03
2022-11-27T11:08:30.007Z,99946.13
2022-11-27T11:12:31.289Z,99942.75
2022-11-27T11:16:41.620Z,99939.34
2022-11-27T11:20:44.375Z,99922.28
2022-11-27T11:24:53.084Z,99906.97
2022-11-27T11:28:55.789Z,99895.94
2022-11-27T11:33:02.101Z,99884.75
2022-11-27T11:37:07.978Z,99894.13
2022-11-27T11:41:09.711Z,99886.41
2022-11-27T11:45:11.027Z,99880.41
2022-11-27T11:49:18.068Z,99865.00
2022-11-27T11:53:38.702Z,99871.09
2022-11-27T11:58:02.839Z,99857.34
2022-11-27T12:02:23.041Z,99853.97
2022-11-27T12:06:37.088Z,99853.22
2022-11-27T12:10:48.895Z,99842.09
2022-11-27T12:14:55.452Z,99831.00
2022-11-27T12:19:15.603Z,99831.13
2022-11-27T12:23:35.704Z,99815.75
2022-11-27T12:28:06.678Z,99809.78
2022-11-27T12:32:10.674Z,99802.97
2022-11-27T12:36:30.517Z,99788.34
2022-11-27T12:40:37.988Z,99772.81
2022-11-27T12:44:47.239Z,99761.63
2022-11-27T12:49:11.675Z,99752.13
2022-11-27T12:53:23.183Z,99731.50
2022-11-27T12:57:38.948Z,99715.94
2022-11-27T13:01:45.830Z,99707.31
2022-11-27T13:05:53.741Z,99690.84
2022-11-27T13:10:03.123Z,99685.69
2022-11-27T13:14:12.043Z,99670.16
2022-11-27T13:18:15.552Z,99670.13
2022-11-27T13:22:27.748Z,99670.09
2022-11-27T13:26:38.932Z,99647.66
2022-11-27T13:30:40.322Z,99631.19
2022-11-27T13:34:43.952Z,99633.75
2022-11-27T13:38:45.575Z,99617.34
2022-11-27T13:42:50.088Z,99605.22
2022-11-27T13:46:54.789Z,99591.38
2022-11-27T13:50:56.416Z,99603.41
2022-11-27T13:55:02.826Z,99601.63
2022-11-27T13:59:20.820Z,99600.75
2022-11-27T14:03:29.443Z,99601.53
2022-11-27T14:07:46.210Z,99610.13
2022-11-27T14:11:47.786Z,99624.75
2022-11-27T14:16:01.829Z,99611.81
2022-11-27T14:20:20.888Z,99618.69
2022-11-27T14:24:25.859Z,99624.66
2022-11-27T14:28:27.252Z,99632.38
2022-11-27T14:32:35.226Z,99626.31
2022-11-27T14:36:36.459Z,99618.53
2022-11-27T14:40:37.970Z,99615.06
2022-11-27T14:44:39.218Z,99609.84
2022-11-27T14:48:45.772Z,99608.97
2022-11-27T14:52:54.968Z,99613.22
2022-11-27T14:56:57.343Z,99608.06
2022-11-27T15:01:01.803Z,99598.53
2022-11-27T15:05:05.281Z,99595.06
2022-11-27T15:09:30.783Z,99589.94
2022-11-27T15:13:29.724Z,99586.47
2022-11-27T15:17:32.814Z,99579.50
2022-11-27T15:21:37.019Z,99559.69
2022-11-27T15:25:40.488Z,99545.91
2022-11-27T15:30:00.529Z,99545.00
2022-11-27T15:34:06.709Z,99537.25
2022-11-27T15:38:09.813Z,99528.59
2022-11-27T15:42:11.459Z,99507.84
2022-11-27T15:46:14.167Z,99492.34
2022-11-27T15:50:17.244Z,99526.75
2022-11-27T15:54:18.862Z,99522.47
2022-11-27T15:58:20.159Z,99529.34
2022-11-27T16:02:23.218Z,99521.56
2022-11-27T16:06:24.693Z,99534.47
2022-11-27T16:10:26.066Z,99511.19
2022-11-27T16:14:30.381Z,99510.31
2022-11-27T16:18:35.452Z,99510.25
2022-11-27T16:22:36.961Z,99506.81
2022-11-27T16:26:38.410Z,99493.84
2022-11-27T16:30:39.848Z,99487.81
2022-11-27T16:34:41.556Z,99466.31
2022-11-27T16:38:43.319Z,99468.88
2022-11-27T16:42:45.082Z,99456.84
2022-11-27T16:46:50.686Z,99435.34
2022-11-27T16:51:00.982Z,99439.63
2022-11-27T16:55:02.724Z,99418.09
2022-11-27T16:59:06.955Z,99422.38
2022-11-27T17:03:08.182Z,99420.69
2022-11-27T17:07:10.295Z,99423.25
2022-11-27T17:11:13.051Z,99412.91
2022-11-27T17:15:14.445Z,99397.38
2022-11-27T17:19:15.761Z,99380.16
2022-11-27T17:23:17.126Z,99380.16
2022-11-27T17:27:18.826Z,99378.44
2022-11-27T17:31:21.552Z,99361.22
2022-11-27T17:35:22.819Z,99356.03
2022-11-27T17:39:25.344Z,99343.94
2022-11-27T17:43:27.971Z,99340.47
2022-11-27T17:47:29.879Z,99351.63
2022-11-27T17:51:32.666Z,99349.88
2022-11-27T17:55:34.218Z,99342.06
2022-11-27T17:59:35.467Z,99348.00
2022-11-27T18:03:36.784Z,99340.22
2022-11-27T18:07:38.151Z,99328.13
2022-11-27T18:11:39.698Z,99328.97
2022-11-27T18:15:42.578Z,99322.94
2022-11-27T18:19:44.125Z,99317.69
2022-11-27T18:24:20.759Z,99309.00
2022-11-27T18:28:08.792Z,99314.13
2022-11-27T18:32:10.824Z,99314.94
2022-11-27T18:36:12.704Z,99302.78
2022-11-27T18:40:14.069Z,99300.97
2022-11-27T18:44:15.408Z,99295.69
2022-11-27T18:48:16.691Z,99301.63
2022-11-27T18:52:18.073Z,99298.13
2022-11-27T18:56:20.941Z,99297.22
2022-11-27T19:00:22.820Z,99291.16
2022-11-27T19:04:24.076Z,99285.88
2022-11-27T19:08:25.871Z,99293.44
2022-11-27T19:12:27.131Z,99282.25
2022-11-27T19:16:32.900Z,99278.75
2022-11-27T19:20:37.951Z,99282.06
2022-11-27T19:24:39.299Z,99283.81
2022-11-27T19:28:40.934Z,99283.81
2022-11-27T19:32:42.906Z,99287.22
2022-11-27T19:36:44.168Z,99286.38
2022-11-27T19:40:45.435Z,99269.19
2022-11-27T19:44:46.727Z,99281.16
2022-11-27T19:48:48.378Z,99274.34
2022-11-27T19:52:49.607Z,99270.00
2022-11-27T19:56:51.136Z,99261.34
2022-11-27T20:00:52.498Z,99239.81
2022-11-27T20:04:54.236Z,99237.28
2022-11-27T20:08:58.640Z,99231.28
2022-11-27T20:13:01.196Z,99230.31
2022-11-27T20:17:03.165Z,99229.34
2022-11-27T20:21:08.859Z,99212.16
2022-11-27T20:25:19.464Z,99216.41
2022-11-27T20:29:21.759Z,99226.66
2022-11-27T20:33:23.808Z,99223.25
2022-11-27T20:37:25.391Z,99224.97
2022-11-27T20:41:26.776Z,99224.97
2022-11-27T20:45:28.140Z,99226.72
2022-11-27T20:49:29.528Z,99219.88
2022-11-27T20:53:30.907Z,99213.88
2022-11-27T20:57:32.231Z,99213.88
2022-11-27T21:01:35.276Z,99208.69
2022-11-27T21:05:36.644Z,99218.94
2022-11-27T21:09:37.958Z,99209.47
2022-11-27T21:13:39.772Z,99204.19
2022-11-27T21:17:41.213Z,99208.47
2022-11-27T21:21:43.143Z,99206.72
2022-11-27T21:25:44.501Z,99205.00
2022-11-27T21:29:45.819Z,99194.69
2022-11-27T21:33:48.034Z,99192.94
2022-11-27T21:37:49.327Z,99182.59
2022-11-27T21:41:52.362Z,99180.00
2022-11-27T21:45:53.912Z,99179.06
2022-11-27T21:49:55.311Z,99187.63
2022-11-27T21:53:57.743Z,99175.63
2022-11-27T21:57:59.492Z,99161.97
2022-11-27T22:02:00.966Z,99158.59
2022-11-27T22:06:07.504Z,99147.41
2022-11-27T22:10:09.667Z,99137.91
2022-11-27T22:14:11.451Z,99132.72
2022-11-27T22:18:13.078Z,99134.41
2022-11-27T22:22:14.339Z,99128.41
2022-11-27T22:26:16.785Z,99121.56
2022-11-27T22:30:18.687Z,99109.53
2022-11-27T22:34:20.086Z,99107.78
2022-11-27T22:38:21.362Z,99097.47
2022-11-27T22:42:22.640Z,99099.19
2022-11-27T22:46:28.942Z,99112.03
2022-11-27T22:50:30.229Z,99098.34
2022-11-27T22:54:31.686Z,99088.03
2022-11-27T22:58:36.054Z,99089.81
2022-11-27T23:02:39.813Z,99088.09
2022-11-27T23:06:41.182Z,99100.97
2022-11-27T23:10:42.468Z,99099.31
2022-11-27T23:14:44.019Z,99110.47
2022-11-27T23:18:45.962Z,99114.72
2022-11-27T23:22:47.365Z,99107.09
2022-11-27T23:26:48.701Z,99108.84
2022-11-27T23:31:08.491Z,99109.75
2022-11-27T23:35:11.621Z,99098.63
2022-11-27T23:39:13.841Z,99100.41
2022-11-27T23:43:15.131Z,99096.19
2022-11-27T23:47:16.412Z,99089.34
2022-11-27T23:51:19.962Z,99081.66
2022-11-27T23:55:21.364Z,99079.94
2022-11-27T23:59:23.114Z,99073.91
